Atka, AK

12:08 PM HADT on July 22, 2014 (GMT -0900)
Dutch Harbor (PADU) Elev 13 ft | 53.90 °N, 166.54 °W | Change Station

Current weather conditions updated 12 minutes ago

Mostly Cloudy
Mostly Cloudy
56 °F
Feels Like 56 °F
N
9
Wind Variable Wind from WSW
Gusts 20 mph

Today is forecast to be nearly the same temperature as yesterday.

Today
High -- | Low -- °F
--% Chance of Precip.
Yesterday
High -- | Low -- °F
Precip. -- in
6:44 AM 10:42 PM
Waning Crescent, 15% visible
Pressure 30.10 in
Visibility 10.0 miles
Clouds Few 2800 ft
Mostly Cloudy 4100 ft
Dew Point 47 °F
Humidity 72%
Rainfall 0.00 in
Snow Depth Not available.
UV 4 out of 12
Pollen Not available.
Air Quality Not available.
Flu Activity Not available.
METAR PADU 222056Z 25008G17KT 10SM FEW028 BKN041 13/08 A3008 RMK AO2 SLP191 MH T01330083 53003

More Conditions Fewer Conditions

Pressure 30.10 in
Visibility 10.0 miles
Clouds Few 2800 ft
Mostly Cloudy 4100 ft
Dew Point 47 °F
Humidity 72%
Rainfall 0.00 in
Snow Depth Not available.
UV 4 out of 12
Pollen Not available.
Air Quality Not available.
Flu Activity Not available.
METAR PADU 222056Z 25008G17KT 10SM FEW028 BKN041 13/08 A3008 RMK AO2 SLP191 MH T01330083 53003

More Conditions Fewer Conditions

10-Day Weather Forecast

Almanac

Astronomy

Jul. 22, 2014 Rise Set
Actual Time 6:44 AM HADT 10:42 PM HADT
Civil Twilight 6:00 AM HADT 11:26 PM HADT
Nautical Twilight 4:58 AM HADT 12:28 AM HADT
Astronomical Twilight 3:16 AM HADT 2:11 AM HADT
Moon 3:33 AM HADT 7:29 PM HADT
Length of Visible Light 17h 25m
Length of Day
15h 58m
Tomorrow will be 2m 47s shorter.
Waning Crescent, 15% of the Moon is Illuminated
Today
Waning Crescent
Jul 26
New
Aug 3
First Quarter
Aug 10
Full
Aug 17
Last Quarter

Today's Extremes

State Highs State Lows

Community

WunderPhotos

Upload Photos

1,736,350 photos uploaded!

Nearby

Snow Depth

Station Depth Elevation
Rocky Point 2 in 500 ft
Port Graham 0 in 300 ft
Mcneil Canyon 1 in 1320 ft
MF Bradley River 24 in 2300 ft
Cooper Lake 16 in 1200 ft

Earthquake Activity

City Distance Mag. Time & Date
No recent earthquake activity has been reported nearby.
Minimum magnitude displayed is 2.5.

Coastal Water Temperatures

Place Temperature
No Stations Reporting

Nearby Weather Stations

There are no personal weather stations in this area.